Time;durP1;ratioP1;P1;durP2;ratioP2;P2;SDS_P1;SDS_P2;PMS_P1;PMS_P2;Temp;Humidity;BMP_temperature;BMP_pressure;BME280_temperature;BME280_humidity;BME280_pressure;Samples;Min_cycle;Max_cycle;Signal;HPM_P1;HPM_P2
2021/06/30 00:01:56;;;;;;;;;12.00;11.00;;;;;17.61;69.90;101119.38;4885845;29;46282;-91
2021/06/30 00:04:22;;;;;;;;;11.00;10.33;;;;;17.54;69.81;101110.53;4884226;29;45443;-93
2021/06/30 00:06:47;;;;;;;;;10.67;9.33;;;;;17.51;70.03;101110.56;4884818;29;45351;-92
2021/06/30 00:09:16;;;;;;;;;11.00;10.00;;;;;17.43;69.62;101095.53;4886178;29;45358;-91
2021/06/30 00:11:42;;;;;;;;;10.00;7.67;;;;;17.48;70.00;101120.34;4899361;29;48033;-90
2021/06/30 00:14:09;;;;;;;;;9.67;9.33;;;;;17.54;69.75;101123.84;4885933;29;45205;-93
2021/06/30 00:16:35;;;;;;;;;8.33;7.33;;;;;17.53;70.04;101125.63;4885840;29;45423;-92
2021/06/30 00:19:01;;;;;;;;;11.00;9.00;;;;;17.50;69.69;101119.44;4899862;29;45435;-92
2021/06/30 00:21:27;;;;;;;;;9.67;9.33;;;;;17.37;69.93;101098.22;4901148;29;47931;-90
2021/06/30 00:23:53;;;;;;;;;9.67;9.00;;;;;17.40;70.44;101098.22;4906622;29;44956;-91
2021/06/30 00:26:19;;;;;;;;;11.67;9.67;;;;;17.38;70.10;101096.47;4922848;29;45201;-91
2021/06/30 00:28:45;;;;;;;;;7.33;7.00;;;;;17.49;70.12;101123.88;4922781;29;45189;-93
2021/06/30 00:31:15;;;;;;;;;8.33;8.33;;;;;17.51;70.14;101113.22;4908278;29;48459;-92
2021/06/30 00:33:40;;;;;;;;;9.00;8.00;;;;;17.47;70.41;101112.38;4910877;29;45441;-93
2021/06/30 00:36:06;;;;;;;;;9.67;8.33;;;;;17.45;70.44;101111.50;4908133;29;44728;-93
2021/06/30 00:38:31;;;;;;;;;10.33;8.00;;;;;17.48;70.31;101116.78;4924890;29;44838;-93
2021/06/30 00:40:57;;;;;;;;;9.00;7.00;;;;;17.31;70.33;101084.97;4920828;29;47297;-92
2021/06/30 00:43:22;;;;;;;;;9.00;7.00;;;;;17.42;70.30;101112.41;4910752;29;45435;-93
2021/06/30 00:45:51;;;;;;;;;7.67;6.67;;;;;17.36;70.12;101101.78;4891930;29;45321;-92
2021/06/30 00:48:17;;;;;;;;;7.33;6.33;;;;;17.38;70.05;101110.66;4909789;29;45182;-92
2021/06/30 00:50:45;;;;;;;;;8.67;8.67;;;;;17.44;70.23;101115.94;4889481;29;45450;-92
2021/06/30 00:53:10;;;;;;;;;6.00;6.00;;;;;17.29;70.22;101094.72;4893145;29;45319;-93
2021/06/30 00:55:38;;;;;;;;;7.67;7.67;;;;;17.37;70.55;101103.53;4882400;29;45417;-91
2021/06/30 00:58:03;;;;;;;;;10.00;8.00;;;;;17.30;70.75;101105.34;4899033;29;45189;-91
2021/06/30 01:00:31;;;;;;;;;6.33;4.67;;;;;17.24;70.22;101092.97;4900782;29;45296;-92
2021/06/30 01:02:57;;;;;;;;;6.33;5.67;;;;;17.33;70.39;101117.75;4898215;29;45169;-90
2021/06/30 01:05:23;;;;;;;;;7.00;6.00;;;;;17.27;70.72;101101.81;4901603;29;45218;-91
2021/06/30 01:07:51;;;;;;;;;8.33;6.67;;;;;17.21;70.47;101102.75;4904060;29;44857;-90
2021/06/30 01:10:16;;;;;;;;;6.67;5.67;;;;;17.16;70.62;101092.13;4903895;29;45268;-92
2021/06/30 01:12:44;;;;;;;;;6.33;6.00;;;;;17.13;70.68;101098.34;4888438;29;44766;-92
2021/06/30 01:15:11;;;;;;;;;8.67;7.00;;;;;17.08;70.82;101092.13;4890767;28;44759;-91
2021/06/30 01:17:37;;;;;;;;;12.00;8.00;;;;;17.18;71.12;101108.94;4906680;28;45408;-90
2021/06/30 01:20:07;;;;;;;;;7.33;7.00;;;;;17.19;71.13;101108.06;4903499;29;47555;-90
2021/06/30 01:22:33;;;;;;;;;10.33;7.33;;;;;17.14;71.43;101104.53;4884778;29;44881;-93
2021/06/30 01:24:58;;;;;;;;;7.67;6.00;;;;;17.15;71.24;101106.31;4885824;29;44792;-92
2021/06/30 01:27:31;;;;;;;;;10.33;6.33;;;;;17.05;70.98;101092.13;4886491;29;45432;-92
2021/06/30 01:29:57;;;;;;;;;8.00;8.00;;;;;17.02;71.42;101087.75;4892323;29;46326;-92
2021/06/30 01:32:26;;;;;;;;;7.33;6.33;;;;;17.07;71.52;101094.81;4887740;29;45451;-93
2021/06/30 01:34:52;;;;;;;;;8.00;6.67;;;;;17.09;71.62;101101.00;4891161;29;45217;-93
2021/06/30 01:37:17;;;;;;;;;7.67;7.67;;;;;16.99;72.21;101079.78;4869380;29;45306;-93
2021/06/30 01:39:43;;;;;;;;;6.00;6.00;;;;;17.13;71.84;101105.44;4884570;29;46105;-91
2021/06/30 01:42:08;;;;;;;;;6.67;6.67;;;;;17.08;71.88;101101.88;4882535;29;45312;-92
2021/06/30 01:44:34;;;;;;;;;5.00;5.00;;;;;17.05;71.86;101099.25;4867137;29;45505;-93
2021/06/30 01:47:00;;;;;;;;;5.00;5.00;;;;;16.98;71.53;101086.00;4884137;29;45396;-92
2021/06/30 01:49:25;;;;;;;;;9.00;5.00;;;;;17.06;71.97;101103.66;4883895;29;46312;-93
2021/06/30 01:51:51;;;;;;;;;5.33;4.00;;;;;16.91;71.61;101084.22;4884002;29;45275;-92
2021/06/30 01:54:19;;;;;;;;;6.67;5.00;;;;;17.02;72.25;101103.69;4883623;29;45322;-93
2021/06/30 01:56:48;;;;;;;;;8.67;6.67;;;;;17.07;72.20;101116.06;4884017;29;45265;-90
2021/06/30 01:59:14;;;;;;;;;7.33;7.33;;;;;17.06;71.94;101124.91;4883318;29;45354;-90
2021/06/30 02:01:44;;;;;;;;;11.00;8.00;;;;;16.98;72.05;101109.00;4866227;29;45460;-89
2021/06/30 02:04:10;;;;;;;;;7.00;7.00;;;;;16.88;71.92;101094.84;4866145;29;45282;-90
2021/06/30 02:06:41;;;;;;;;;10.67;8.67;;;;;16.87;72.26;101099.28;4866823;29;45537;-91
2021/06/30 02:09:10;;;;;;;;;8.00;8.00;;;;;16.99;72.03;101130.22;4866082;29;48413;-90
2021/06/30 02:11:35;;;;;;;;;8.33;7.00;;;;;16.84;71.70;101104.59;4866544;29;45371;-92
2021/06/30 02:14:03;;;;;;;;;9.00;7.00;;;;;16.88;71.71;101116.97;4866662;29;45249;-94
2021/06/30 02:16:28;;;;;;;;;9.33;9.33;;;;;16.85;72.11;101102.84;4883793;29;45276;-91
2021/06/30 02:18:54;;;;;;;;;11.33;9.00;;;;;16.78;72.33;101097.53;4866270;29;47036;-91
2021/06/30 02:21:20;;;;;;;;;12.00;9.00;;;;;16.86;72.11;101117.88;4866573;29;45832;-91
2021/06/30 02:23:46;;;;;;;;;11.00;10.00;;;;;16.77;72.30;101100.22;4883460;29;45375;-90
2021/06/30 02:26:11;;;;;;;;;11.00;8.00;;;;;16.91;72.48;101126.72;4881807;29;45495;-91
2021/06/30 02:28:37;;;;;;;;;11.00;9.00;;;;;16.75;72.31;101107.28;4882703;29;46241;-90
2021/06/30 02:31:03;;;;;;;;;8.00;7.00;;;;;16.78;72.07;101110.81;4883103;29;45402;-90
2021/06/30 02:33:28;;;;;;;;;10.33;8.67;;;;;16.78;72.29;101104.63;4865816;29;45290;-90
2021/06/30 02:35:55;;;;;;;;;8.67;8.00;;;;;16.77;72.02;101108.19;4885522;29;45158;-91
2021/06/30 02:38:20;;;;;;;;;7.00;7.00;;;;;16.79;72.17;101111.72;4869148;29;48493;-90
2021/06/30 02:40:46;;;;;;;;;8.67;8.67;;;;;16.88;72.65;101132.03;4886519;29;45242;-92
2021/06/30 02:43:12;;;;;;;;;9.67;8.00;;;;;16.83;72.29;101125.84;4886439;29;45255;-93
2021/06/30 02:45:37;;;;;;;;;8.00;8.00;;;;;16.86;72.27;101132.03;4885526;29;45546;-92
2021/06/30 02:48:03;;;;;;;;;10.33;9.00;;;;;16.73;72.63;101115.25;4888810;29;45487;-91
2021/06/30 02:50:29;;;;;;;;;10.00;9.00;;;;;16.82;72.23;101134.69;4873143;29;45421;-91
2021/06/30 02:52:55;;;;;;;;;10.67;9.33;;;;;16.84;72.14;101136.47;4886295;29;45356;-92
2021/06/30 02:55:21;;;;;;;;;9.67;9.00;;;;;16.84;72.34;101135.56;4874935;29;45538;-90
2021/06/30 02:57:48;;;;;;;;;10.33;9.00;;;;;16.77;72.52;101119.66;4872308;29;47500;-92
2021/06/30 03:00:17;;;;;;;;;10.67;10.00;;;;;16.86;72.38;101136.44;4870028;29;45447;-92
2021/06/30 03:02:44;;;;;;;;;9.33;7.33;;;;;16.85;71.93;101142.66;4886862;29;45219;-92
2021/06/30 03:05:10;;;;;;;;;9.33;9.33;;;;;16.69;71.88;101117.94;4887531;29;45467;-91
2021/06/30 03:07:36;;;;;;;;;11.33;10.00;;;;;16.68;71.77;101117.03;4890424;29;45496;-92
2021/06/30 03:10:06;;;;;;;;;12.00;10.67;;;;;16.68;72.06;101119.69;4891815;29;45421;-90
2021/06/30 03:12:32;;;;;;;;;11.33;10.00;;;;;16.81;71.85;101136.50;4895649;29;45152;-90
2021/06/30 03:14:57;;;;;;;;;10.33;10.33;;;;;16.66;72.26;101116.16;4887546;29;45262;-93
2021/06/30 03:17:30;;;;;;;;;12.00;11.00;;;;;16.84;72.30;101138.22;4869621;29;47127;-91
2021/06/30 03:19:56;;;;;;;;;11.00;9.00;;;;;16.72;71.96;101121.47;4869185;29;45726;-92
2021/06/30 03:22:21;;;;;;;;;13.33;10.00;;;;;16.66;71.86;101118.81;4872911;29;45238;-91
2021/06/30 03:24:47;;;;;;;;;10.67;10.67;;;;;16.63;71.83;101118.81;4870163;29;45503;-90
2021/06/30 03:27:12;;;;;;;;;16.00;9.67;;;;;16.82;71.62;101148.84;4871609;29;47203;-92
2021/06/30 03:29:38;;;;;;;;;11.67;10.33;;;;;16.76;71.86;101131.19;4893175;29;46093;-90
2021/06/30 03:32:06;;;;;;;;;13.67;11.00;;;;;16.80;71.72;101145.31;4873627;29;45206;-92
2021/06/30 03:34:34;;;;;;;;;11.33;8.00;;;;;16.66;71.80;101122.34;4872336;29;45242;-90
2021/06/30 03:36:59;;;;;;;;;13.00;13.00;;;;;16.76;71.72;101144.47;4870200;29;47226;-93
2021/06/30 03:39:25;;;;;;;;;13.67;11.00;;;;;16.72;71.53;101141.78;4892982;29;45163;-91
2021/06/30 03:41:50;;;;;;;;;10.33;9.33;;;;;16.72;71.49;101145.34;4896565;29;44664;-92
2021/06/30 03:44:16;;;;;;;;;11.00;10.33;;;;;16.76;71.76;101148.88;4872383;29;45311;-93
2021/06/30 03:46:41;;;;;;;;;13.00;10.00;;;;;16.60;71.90;101122.38;4869896;29;47186;-93
2021/06/30 03:49:07;;;;;;;;;13.67;11.00;;;;;16.68;71.44;101146.25;4886965;29;45245;-91
2021/06/30 03:51:35;;;;;;;;;13.67;10.67;;;;;16.67;71.91;101133.84;4885814;29;45189;-94
2021/06/30 03:54:00;;;;;;;;;9.67;9.67;;;;;16.64;71.99;101134.75;4890255;29;45462;-92
2021/06/30 03:56:26;;;;;;;;;12.67;9.00;;;;;16.62;71.12;101132.97;4883853;29;47861;-92
2021/06/30 03:58:53;;;;;;;;;13.67;9.00;;;;;16.71;71.63;101151.53;4900164;29;45390;-92
2021/06/30 04:01:20;;;;;;;;;12.00;10.33;;;;;16.61;71.47;101133.84;4885212;29;45309;-91
2021/06/30 04:03:49;;;;;;;;;17.00;11.00;;;;;16.75;71.63;101158.59;4885808;29;45206;-92
2021/06/30 04:06:14;;;;;;;;;10.67;8.00;;;;;16.58;71.03;101140.06;4884335;29;47059;-91
2021/06/30 04:08:40;;;;;;;;;13.00;10.67;;;;;16.59;71.67;101140.94;4884153;29;45512;-93
2021/06/30 04:11:08;;;;;;;;;15.00;12.00;;;;;16.55;71.44;101125.03;4885933;29;45313;-91
2021/06/30 04:13:34;;;;;;;;;13.00;9.33;;;;;16.61;71.35;101142.69;4884259;29;45427;-91
2021/06/30 04:16:02;;;;;;;;;12.00;10.00;;;;;16.64;71.66;101140.06;4899368;29;47322;-92
2021/06/30 04:18:27;;;;;;;;;11.00;10.00;;;;;16.65;71.38;101162.16;4884206;29;45470;-93
2021/06/30 04:20:58;;;;;;;;;12.67;8.33;;;;;16.62;71.27;101154.22;4883318;29;45278;-94
2021/06/30 04:23:23;;;;;;;;;9.33;9.00;;;;;16.67;71.67;101163.03;4883945;29;45430;-92
2021/06/30 04:25:51;;;;;;;;;10.00;9.00;;;;;16.59;71.38;101141.81;4899225;29;47963;-92
2021/06/30 04:28:18;;;;;;;;;8.67;8.67;;;;;16.60;71.36;101143.59;4883802;29;45550;-94
2021/06/30 04:30:46;;;;;;;;;11.67;8.33;;;;;16.60;71.32;101151.56;4883336;29;45444;-94
2021/06/30 04:33:15;;;;;;;;;10.00;9.00;;;;;16.64;71.15;101161.28;4883329;29;45550;-92
2021/06/30 04:36:31;;;;;;;;;10.00;10.00;;;;;16.54;71.64;101147.13;4884142;29;45635;-92
2021/06/30 04:39:00;;;;;;;;;13.00;10.33;;;;;16.68;71.44;101172.78;4865671;29;46253;-91
2021/06/30 04:41:28;;;;;;;;;12.00;10.00;;;;;16.57;71.36;101153.31;4866895;29;45270;-92
2021/06/30 04:43:54;;;;;;;;;8.00;8.00;;;;;16.61;71.46;101169.25;4867103;29;45286;-93
2021/06/30 04:46:20;;;;;;;;;8.33;8.33;;;;;16.66;71.12;101174.56;4866533;29;48077;-92
2021/06/30 04:48:45;;;;;;;;;11.67;11.00;;;;;16.55;71.09;101153.31;4866695;29;45323;-93
2021/06/30 04:51:11;;;;;;;;;8.33;8.33;;;;;16.61;71.40;101168.34;4884461;29;45299;-91
2021/06/30 04:53:37;;;;;;;;;9.00;8.00;;;;;16.53;71.25;101157.75;4907045;29;44733;-91
2021/06/30 04:56:05;;;;;;;;;8.67;8.00;;;;;16.52;71.86;101153.34;4889235;29;47317;-91
2021/06/30 04:58:30;;;;;;;;;8.00;7.00;;;;;16.49;71.47;101143.59;4872737;29;45456;-93
2021/06/30 05:00:56;;;;;;;;;9.33;8.33;;;;;16.63;71.45;101175.44;4870757;29;45451;-91
2021/06/30 05:03:28;;;;;;;;;11.67;9.33;;;;;16.56;71.46;101157.75;4867030;29;45704;-92
2021/06/30 05:05:56;;;;;;;;;7.00;6.67;;;;;16.50;71.64;101155.97;4867057;29;48073;-91
2021/06/30 05:08:26;;;;;;;;;9.00;7.33;;;;;16.60;71.74;101169.25;4867465;29;45551;-93
2021/06/30 05:10:59;;;;;;;;;8.33;8.33;;;;;16.62;71.71;101176.34;4891744;29;45302;-91
2021/06/30 05:13:24;;;;;;;;;10.00;8.00;;;;;16.45;71.63;101149.81;4895067;29;45288;-91
2021/06/30 05:15:50;;;;;;;;;9.00;6.00;;;;;16.49;71.37;101162.19;4887706;29;47077;-93
2021/06/30 05:18:19;;;;;;;;;8.00;7.00;;;;;16.43;71.61;101151.56;4886422;29;45179;-92
2021/06/30 05:20:46;;;;;;;;;10.33;7.33;;;;;16.44;71.87;101155.97;4884935;29;45443;-92
2021/06/30 05:23:16;;;;;;;;;9.33;8.67;;;;;16.54;71.20;101171.00;4899228;29;45471;-93
2021/06/30 05:25:41;;;;;;;;;7.67;7.00;;;;;16.47;71.54;101163.94;4881363;29;47327;-87
2021/06/30 05:28:07;;;;;;;;;10.00;7.00;;;;;16.57;72.10;101179.84;4881282;29;45349;-84
2021/06/30 05:30:32;;;;;;;;;11.33;9.00;;;;;16.66;71.69;101190.47;4881274;29;45763;-83
2021/06/30 05:32:58;;;;;;;;;12.00;6.00;;;;;16.69;71.85;101192.25;4881246;29;45230;-83
2021/06/30 05:35:23;;;;;;;;;9.33;8.00;;;;;16.70;71.98;101196.66;4882326;29;46224;-83
2021/06/30 05:37:49;;;;;;;;;12.67;10.00;;;;;16.71;71.92;101195.78;4882325;29;45372;-83
2021/06/30 05:40:15;;;;;;;;;10.33;8.00;;;;;16.72;71.28;101202.84;4882050;29;45395;-83
2021/06/30 05:42:42;;;;;;;;;10.00;9.33;;;;;16.71;71.83;101194.00;4882593;29;45333;-82
2021/06/30 05:45:08;;;;;;;;;10.00;9.00;;;;;16.71;71.94;101196.66;4882011;29;46039;-82
2021/06/30 05:47:33;;;;;;;;;12.00;9.00;;;;;16.72;72.07;101198.44;4880552;29;45523;-83
2021/06/30 05:49:59;;;;;;;;;11.33;10.33;;;;;16.74;71.67;101201.09;4882203;29;45269;-83
2021/06/30 05:52:24;;;;;;;;;8.33;7.67;;;;;16.70;71.61;101194.91;4882513;29;45226;-82
2021/06/30 05:54:50;;;;;;;;;9.00;8.00;;;;;16.71;71.47;101209.94;4881570;29;46422;-83
2021/06/30 05:57:15;;;;;;;;;12.67;10.00;;;;;16.70;72.10;101202.88;4882224;29;45255;-84
2021/06/30 05:59:40;;;;;;;;;10.00;9.00;;;;;16.68;72.04;101199.31;4882319;29;45237;-85
2021/06/30 06:02:07;;;;;;;;;13.33;9.33;;;;;16.66;72.02;101201.09;4882481;29;45387;-83
2021/06/30 06:04:32;;;;;;;;;8.67;8.67;;;;;16.63;72.10;101201.97;4881782;29;46103;-83
2021/06/30 06:06:57;;;;;;;;;12.67;12.33;;;;;16.65;72.46;101209.94;4881470;29;45342;-83
2021/06/30 06:09:23;;;;;;;;;12.00;10.00;;;;;16.61;72.49;101206.41;4883475;29;45713;-83
2021/06/30 06:11:48;;;;;;;;;12.00;8.33;;;;;16.63;72.90;101211.69;4868486;29;45239;-84
2021/06/30 06:14:14;;;;;;;;;9.00;7.00;;;;;16.65;72.51;101225.84;4885116;29;46203;-85
2021/06/30 06:16:39;;;;;;;;;7.00;7.00;;;;;16.60;72.34;101217.91;4884925;29;45418;-84
2021/06/30 06:19:05;;;;;;;;;7.33;7.33;;;;;16.56;72.06;101216.16;4885856;29;45300;-84
2021/06/30 06:21:32;;;;;;;;;11.00;8.33;;;;;16.54;72.90;101224.09;4885373;29;45300;-81
2021/06/30 06:23:57;;;;;;;;;10.67;7.33;;;;;16.52;72.17;101219.69;4885329;29;45361;-87
2021/06/30 06:26:23;;;;;;;;;8.00;6.00;;;;;16.49;72.89;101228.53;4884967;29;45409;-86
2021/06/30 06:28:49;;;;;;;;;9.33;8.00;;;;;16.47;72.47;101227.63;4885503;29;45312;-83
2021/06/30 06:31:17;;;;;;;;;9.00;8.00;;;;;16.43;73.12;101225.88;4888815;29;45310;-88
2021/06/30 06:33:42;;;;;;;;;7.67;7.67;;;;;16.43;72.55;101226.72;4877595;29;47419;-90
2021/06/30 06:36:09;;;;;;;;;12.67;9.33;;;;;16.38;73.71;101227.63;4896023;29;45232;-89
2021/06/30 06:38:36;;;;;;;;;9.67;7.00;;;;;16.44;73.25;101243.53;4875446;29;45423;-88
2021/06/30 06:41:01;;;;;;;;;9.00;9.00;;;;;16.32;73.44;101226.75;4887885;29;45407;-87
2021/06/30 06:43:27;;;;;;;;;8.67;7.00;;;;;16.43;73.30;101231.19;4889732;29;45606;-88
2021/06/30 06:45:52;;;;;;;;;8.00;8.00;;;;;16.34;73.39;101231.16;4887490;29;45360;-88
2021/06/30 06:48:18;;;;;;;;;9.00;6.33;;;;;16.38;73.56;101232.91;4885906;29;45293;-88
2021/06/30 06:50:43;;;;;;;;;11.00;9.00;;;;;16.36;73.54;101226.72;4885874;29;45252;-88
2021/06/30 06:53:08;;;;;;;;;6.67;6.67;;;;;16.31;73.62;101227.59;4868393;29;47672;-88
2021/06/30 06:55:34;;;;;;;;;11.00;6.67;;;;;16.29;73.48;101224.06;4884909;29;45177;-88
2021/06/30 06:58:00;;;;;;;;;10.00;7.67;;;;;16.36;73.62;101235.59;4884904;29;45285;-88
2021/06/30 07:00:26;;;;;;;;;9.00;9.00;;;;;16.34;73.21;101236.44;4885115;29;45291;-87
2021/06/30 07:02:52;;;;;;;;;6.33;5.33;;;;;16.29;73.19;101232.03;4867853;29;47204;-88
2021/06/30 07:05:17;;;;;;;;;10.33;9.33;;;;;16.28;73.00;101232.03;4885174;29;45247;-87
2021/06/30 07:07:44;;;;;;;;;9.33;8.00;;;;;16.30;73.18;101236.47;4886248;29;45225;-87
2021/06/30 07:10:11;;;;;;;;;7.67;6.00;;;;;16.32;73.90;101240.00;4885660;29;45342;-88
2021/06/30 07:12:37;;;;;;;;;8.67;8.67;;;;;16.26;73.36;101226.72;4885176;29;46707;-88
2021/06/30 07:15:04;;;;;;;;;11.67;11.00;;;;;16.30;73.33;101236.47;4885793;29;45353;-88
2021/06/30 07:17:33;;;;;;;;;11.00;10.00;;;;;16.33;73.72;101235.56;4885473;29;45227;-87
2021/06/30 07:19:58;;;;;;;;;11.67;10.00;;;;;16.42;74.11;101250.63;4885203;29;45316;-88
2021/06/30 07:22:23;;;;;;;;;14.33;11.00;;;;;16.42;73.46;101253.28;4884297;29;46401;-87
2021/06/30 07:24:49;;;;;;;;;13.67;11.00;;;;;16.33;73.77;101235.56;4884444;29;45457;-88
2021/06/30 07:27:14;;;;;;;;;11.67;9.00;;;;;16.28;73.52;101224.97;4884492;29;45337;-87
2021/06/30 07:29:40;;;;;;;;;9.00;7.33;;;;;16.32;73.64;101228.50;4867783;29;45324;-87
2021/06/30 07:32:06;;;;;;;;;9.67;7.00;;;;;16.49;73.37;101252.41;4867436;29;48062;-87
2021/06/30 07:34:31;;;;;;;;;8.00;8.00;;;;;16.47;73.49;101251.53;4867673;29;46251;-87
2021/06/30 07:36:58;;;;;;;;;9.67;8.00;;;;;16.49;73.61;101263.03;4884860;29;45433;-90
2021/06/30 07:39:24;;;;;;;;;9.33;9.33;;;;;16.44;73.70;101251.50;4885177;29;45389;-88
2021/06/30 07:41:53;;;;;;;;;18.33;12.33;;;;;16.44;73.47;101256.81;4867510;29;46412;-89
2021/06/30 07:44:19;;;;;;;;;9.00;9.00;;;;;16.55;73.36;101268.34;4884200;29;45387;-88
2021/06/30 07:46:45;;;;;;;;;9.00;9.00;;;;;16.47;73.47;101254.19;4867306;29;45345;-88
2021/06/30 07:49:10;;;;;;;;;5.67;5.00;;;;;16.47;72.83;101253.28;4884286;29;45428;-87
2021/06/30 07:51:36;;;;;;;;;11.00;8.00;;;;;16.44;72.82;101263.00;4867231;29;48099;-89
2021/06/30 07:54:01;;;;;;;;;11.67;10.33;;;;;16.47;72.73;101264.78;4883671;29;45401;-87
2021/06/30 07:56:33;;;;;;;;;12.67;12.33;;;;;16.51;72.65;101263.91;4883968;29;45281;-88
2021/06/30 07:59:10;;;;;;;;;11.00;10.33;;;;;16.53;72.96;101264.81;4884754;29;45305;-88
2021/06/30 08:01:37;;;;;;;;;14.67;10.00;;;;;16.65;72.66;101261.25;4884223;29;45403;-88
2021/06/30 08:04:03;;;;;;;;;10.67;8.33;;;;;16.64;72.96;101263.91;4883947;29;45383;-87
2021/06/30 08:06:29;;;;;;;;;11.00;10.33;;;;;16.68;73.20;101257.72;4884136;29;45309;-87
2021/06/30 08:08:54;;;;;;;;;13.33;12.33;;;;;16.67;73.10;101248.88;4884243;29;45403;-87
2021/06/30 08:11:23;;;;;;;;;11.00;9.67;;;;;16.72;72.88;101248.88;4866787;29;48564;-87
2021/06/30 08:13:49;;;;;;;;;9.67;8.67;;;;;16.79;73.13;101257.75;4883987;29;45420;-87
2021/06/30 08:16:15;;;;;;;;;12.67;10.33;;;;;16.86;73.20;101261.25;4866767;29;45431;-86
2021/06/30 08:18:40;;;;;;;;;11.00;8.00;;;;;16.83;72.39;101254.19;4884330;29;45492;-87
2021/06/30 08:21:06;;;;;;;;;9.33;9.00;;;;;16.88;72.79;101256.81;4866741;29;47630;-88
2021/06/30 08:23:31;;;;;;;;;12.00;9.00;;;;;16.89;72.19;101245.34;4866857;29;46018;-88
2021/06/30 08:25:57;;;;;;;;;13.67;10.00;;;;;17.05;72.55;101271.88;4883710;29;45709;-87
2021/06/30 08:28:24;;;;;;;;;13.67;9.00;;;;;17.10;72.41;101272.75;4866822;29;45390;-87
2021/06/30 08:30:50;;;;;;;;;13.33;9.67;;;;;17.02;72.23;101254.19;4866211;29;47392;-87
2021/06/30 08:33:17;;;;;;;;;12.00;11.00;;;;;17.11;71.77;101261.25;4882145;29;45225;-87
2021/06/30 08:35:43;;;;;;;;;13.33;10.33;;;;;17.10;71.79;101254.16;4883310;29;45303;-87
2021/06/30 08:38:09;;;;;;;;;10.67;8.00;;;;;17.22;71.37;101275.41;4883804;29;45441;-89
2021/06/30 08:40:37;;;;;;;;;13.00;9.67;;;;;17.23;72.14;101265.69;4866641;29;47202;-88
2021/06/30 08:43:03;;;;;;;;;11.33;10.00;;;;;17.17;72.66;101255.97;4883075;29;45427;-88
2021/06/30 08:45:28;;;;;;;;;11.00;9.00;;;;;17.20;71.78;101252.41;4883526;29;45379;-88
2021/06/30 08:47:55;;;;;;;;;12.00;11.00;;;;;17.34;72.18;101274.50;4866510;29;45556;-88
2021/06/30 08:50:21;;;;;;;;;10.33;9.00;;;;;17.39;71.11;101262.97;4883482;29;45315;-87
2021/06/30 08:52:48;;;;;;;;;13.33;12.00;;;;;17.28;71.32;101245.28;4881950;29;45390;-87
2021/06/30 08:55:15;;;;;;;;;8.67;8.67;;;;;17.40;71.24;101246.16;4883260;29;45472;-87
2021/06/30 08:57:44;;;;;;;;;11.33;9.33;;;;;17.53;70.86;101253.22;4868415;29;45452;-89
2021/06/30 09:00:11;;;;;;;;;12.33;10.33;;;;;17.79;72.54;101260.19;4887116;29;46158;-88
2021/06/30 09:02:37;;;;;;;;;15.00;12.67;;;;;17.85;71.58;101246.00;4887857;29;45305;-87
2021/06/30 09:06:00;;;;;;;;;10.67;10.67;;;;;18.15;70.94;101262.69;4898410;29;45187;-86
2021/06/30 09:07:56;;;;;;;;;12.00;10.33;;;;;18.10;70.38;101235.22;4907754;28;44578;-87
2021/06/30 09:10:39;;;;;;;;;10.33;10.33;;;;;18.35;70.04;101263.47;4909001;29;45129;-87
2021/06/30 09:13:07;;;;;;;;;13.00;10.67;;;;;18.38;68.94;101259.00;4896405;28;45227;-87
2021/06/30 09:15:34;;;;;;;;;12.00;11.00;;;;;18.44;70.05;101281.19;4884817;29;45236;-88
2021/06/30 09:18:19;;;;;;;;;13.67;10.33;;;;;18.43;70.01;101266.09;4868283;29;45517;-89
2021/06/30 09:20:45;;;;;;;;;13.33;10.33;;;;;18.32;69.68;101243.09;4885123;29;45482;-89
2021/06/30 09:23:11;;;;;;;;;14.67;11.00;;;;;18.42;69.82;101267.88;4886362;29;45321;-89
2021/06/30 09:25:42;;;;;;;;;13.33;12.33;;;;;18.43;69.51;101268.75;4873227;29;45317;-88
2021/06/30 09:28:22;;;;;;;;;11.67;10.67;;;;;18.31;69.28;101254.66;4888081;29;45332;-87
2021/06/30 09:31:09;;;;;;;;;10.00;10.00;;;;;18.36;69.05;101276.78;4885449;29;45445;-87
2021/06/30 09:33:55;;;;;;;;;11.67;10.67;;;;;18.37;69.54;101275.91;4884869;29;45224;-87
2021/06/30 09:36:22;;;;;;;;;12.00;10.67;;;;;18.30;68.72;101258.19;4890068;29;45251;-88
2021/06/30 09:38:48;;;;;;;;;15.00;12.33;;;;;18.31;69.04;101259.06;4889708;29;45365;-87
2021/06/30 09:41:25;;;;;;;;;10.33;10.33;;;;;18.28;69.78;101255.53;4886486;29;45423;-87
2021/06/30 09:44:02;;;;;;;;;12.00;11.00;;;;;18.45;69.19;101274.94;4889630;29;45456;-88
2021/06/30 09:46:28;;;;;;;;;13.00;11.33;;;;;18.34;68.40;101262.59;4878385;29;45458;-89
2021/06/30 09:49:01;;;;;;;;;12.67;10.67;;;;;18.47;69.28;101281.13;4881714;29;45345;-89
2021/06/30 09:51:27;;;;;;;;;13.00;9.67;;;;;18.46;68.69;101287.38;4896319;29;45228;-88
2021/06/30 09:54:02;;;;;;;;;10.00;8.33;;;;;18.40;68.13;101275.84;4896890;29;45665;-88
2021/06/30 09:56:34;;;;;;;;;12.67;10.67;;;;;18.39;68.75;101274.09;4893572;29;45523;-88
2021/06/30 09:59:16;;;;;;;;;12.00;11.67;;;;;18.34;68.28;101267.91;4875973;29;45528;-88
2021/06/30 10:01:43;;;;;;;;;12.67;11.67;;;;;18.37;68.97;101280.31;4889708;29;45500;-88
2021/06/30 10:04:11;;;;;;;;;12.00;10.67;;;;;18.37;69.13;101275.00;4886827;29;45371;-88
2021/06/30 10:06:39;;;;;;;;;15.67;11.33;;;;;18.34;68.20;101273.25;4888005;29;45324;-88
2021/06/30 10:09:07;;;;;;;;;13.33;13.00;;;;;18.39;68.98;101283.84;4887558;29;45286;-87
2021/06/30 10:11:34;;;;;;;;;12.33;12.00;;;;;18.41;68.96;101292.72;4885892;29;46138;-88
2021/06/30 10:14:01;;;;;;;;;12.33;12.33;;;;;18.34;69.06;101278.56;4884639;29;45384;-87
2021/06/30 10:16:27;;;;;;;;;11.67;10.00;;;;;18.31;68.16;101286.59;4885984;29;45318;-88
2021/06/30 10:18:56;;;;;;;;;12.00;10.00;;;;;18.34;68.09;101281.22;4885683;29;45456;-88
2021/06/30 10:21:24;;;;;;;;;16.67;12.33;;;;;18.43;68.80;101304.25;4885688;29;46311;-87
2021/06/30 10:23:51;;;;;;;;;10.33;9.67;;;;;18.51;69.03;101301.53;4868446;29;45288;-87
2021/06/30 10:26:20;;;;;;;;;12.67;12.00;;;;;18.49;68.73;101290.00;4885840;29;45324;-88
2021/06/30 10:28:57;;;;;;;;;14.00;12.00;;;;;18.55;68.76;101287.28;4886719;29;45348;-90
2021/06/30 10:31:24;;;;;;;;;13.33;11.00;;;;;18.71;69.39;101297.84;4885273;29;45627;-79
2021/06/30 10:33:57;;;;;;;;;13.67;11.67;;;;;18.77;69.42;101300.47;4885083;29;45352;-68
2021/06/30 10:36:43;;;;;;;;;8.33;8.33;;;;;18.80;68.04;101292.47;4868305;29;45464;-87
2021/06/30 10:39:09;;;;;;;;;10.67;10.00;;;;;18.84;68.45;101294.19;4885573;29;45290;-85
2021/06/30 10:41:52;;;;;;;;;15.00;10.00;;;;;18.89;68.48;101291.47;4884513;29;45425;-83
2021/06/30 10:44:20;;;;;;;;;11.00;11.00;;;;;18.92;68.51;101293.22;4884692;29;45338;-83
2021/06/30 10:46:46;;;;;;;;;12.00;10.33;;;;;18.93;68.57;101292.34;4884765;29;45380;-84
2021/06/30 10:49:29;;;;;;;;;12.00;10.00;;;;;18.92;68.25;101286.13;4884925;29;45392;-78
2021/06/30 10:52:00;;;;;;;;;10.67;10.33;;;;;18.91;67.77;101296.81;4884578;29;47456;-73
2021/06/30 10:54:40;;;;;;;;;11.33;10.00;;;;;18.86;68.31;101292.41;4884145;29;45497;-80
2021/06/30 10:57:31;;;;;;;;;9.33;8.00;;;;;18.85;67.72;101293.28;4883539;29;45321;-76
2021/06/30 11:00:03;;;;;;;;;11.00;11.00;;;;;18.80;67.64;101292.47;4884347;29;45601;-80
2021/06/30 11:02:38;;;;;;;;;11.67;10.33;;;;;18.77;66.88;101299.56;4884326;29;45396;-79
2021/06/30 11:05:13;;;;;;;;;13.33;11.67;;;;;18.75;67.86;101307.56;4884019;29;45322;-79
2021/06/30 11:07:39;;;;;;;;;15.67;14.00;;;;;18.74;67.70;101298.69;4884135;29;45348;-81
2021/06/30 11:10:16;;;;;;;;;10.33;10.33;;;;;18.74;68.13;101304.03;4867393;29;45592;-80
2021/06/30 11:12:59;;;;;;;;;12.00;11.67;;;;;18.73;68.35;101291.63;4866872;29;46985;-81
2021/06/30 11:15:39;;;;;;;;;14.67;13.00;;;;;18.77;66.72;101299.56;4884001;29;45221;-81
2021/06/30 11:18:25;;;;;;;;;13.33;12.00;;;;;18.80;67.22;101303.13;4884078;29;45343;-81
2021/06/30 11:20:52;;;;;;;;;14.00;12.00;;;;;18.83;67.20;101297.75;4884031;29;45336;-80